sensor_id;sensor_type;location;lat;lon;timestamp;P1;durP1;ratioP1;P2;durP2;ratioP2
40907;SDS011;51055;59.436;24.778;2023-02-07T00:01:43;11.40;;;4.30;;
40907;SDS011;51055;59.436;24.778;2023-02-07T00:04:10;9.95;;;3.95;;
40907;SDS011;51055;59.436;24.778;2023-02-07T00:06:37;13.55;;;4.10;;
40907;SDS011;51055;59.436;24.778;2023-02-07T00:09:05;11.40;;;3.97;;
40907;SDS011;51055;59.436;24.778;2023-02-07T00:11:34;11.95;;;4.15;;
40907;SDS011;51055;59.436;24.778;2023-02-07T00:14:01;19.52;;;4.57;;
40907;SDS011;51055;59.436;24.778;2023-02-07T00:16:28;12.90;;;4.30;;
40907;SDS011;51055;59.436;24.778;2023-02-07T00:18:56;12.75;;;4.90;;
40907;SDS011;51055;59.436;24.778;2023-02-07T00:21:26;10.98;;;4.28;;
40907;SDS011;51055;59.436;24.778;2023-02-07T00:23:53;11.52;;;4.25;;
40907;SDS011;51055;59.436;24.778;2023-02-07T00:26:21;16.30;;;5.20;;
40907;SDS011;51055;59.436;24.778;2023-02-07T00:28:49;15.20;;;5.00;;
40907;SDS011;51055;59.436;24.778;2023-02-07T00:31:18;13.30;;;5.70;;
40907;SDS011;51055;59.436;24.778;2023-02-07T00:33:46;14.65;;;6.00;;
40907;SDS011;51055;59.436;24.778;2023-02-07T00:36:15;9.50;;;4.50;;
40907;SDS011;51055;59.436;24.778;2023-02-07T00:38:43;11.23;;;4.07;;
40907;SDS011;51055;59.436;24.778;2023-02-07T00:41:11;15.60;;;5.90;;
40907;SDS011;51055;59.436;24.778;2023-02-07T00:43:41;12.85;;;5.25;;
40907;SDS011;51055;59.436;24.778;2023-02-07T00:46:09;11.80;;;5.53;;
40907;SDS011;51055;59.436;24.778;2023-02-07T00:48:36;15.65;;;5.93;;
40907;SDS011;51055;59.436;24.778;2023-02-07T00:51:06;15.05;;;5.78;;
40907;SDS011;51055;59.436;24.778;2023-02-07T00:53:34;13.65;;;5.18;;
40907;SDS011;51055;59.436;24.778;2023-02-07T00:56:01;15.13;;;5.78;;
40907;SDS011;51055;59.436;24.778;2023-02-07T00:58:28;12.80;;;5.78;;
40907;SDS011;51055;59.436;24.778;2023-02-07T01:00:56;18.45;;;6.55;;
40907;SDS011;51055;59.436;24.778;2023-02-07T01:03:24;13.10;;;5.40;;
40907;SDS011;51055;59.436;24.778;2023-02-07T01:05:51;11.70;;;4.90;;
40907;SDS011;51055;59.436;24.778;2023-02-07T01:08:19;13.45;;;5.38;;
40907;SDS011;51055;59.436;24.778;2023-02-07T01:10:47;13.52;;;5.00;;
40907;SDS011;51055;59.436;24.778;2023-02-07T01:13:14;11.10;;;4.88;;
40907;SDS011;51055;59.436;24.778;2023-02-07T01:15:43;11.57;;;4.85;;
40907;SDS011;51055;59.436;24.778;2023-02-07T01:18:11;11.70;;;5.05;;
40907;SDS011;51055;59.436;24.778;2023-02-07T01:20:39;9.48;;;5.15;;
40907;SDS011;51055;59.436;24.778;2023-02-07T01:23:06;14.05;;;4.90;;
40907;SDS011;51055;59.436;24.778;2023-02-07T01:25:34;10.43;;;4.30;;
40907;SDS011;51055;59.436;24.778;2023-02-07T01:28:02;12.88;;;5.03;;
40907;SDS011;51055;59.436;24.778;2023-02-07T01:30:29;11.30;;;4.55;;
40907;SDS011;51055;59.436;24.778;2023-02-07T01:32:57;12.23;;;5.07;;
40907;SDS011;51055;59.436;24.778;2023-02-07T01:35:24;12.57;;;4.63;;
40907;SDS011;51055;59.436;24.778;2023-02-07T01:37:52;14.00;;;5.25;;
40907;SDS011;51055;59.436;24.778;2023-02-07T01:40:19;13.48;;;5.03;;
40907;SDS011;51055;59.436;24.778;2023-02-07T01:42:47;10.27;;;4.80;;
40907;SDS011;51055;59.436;24.778;2023-02-07T01:47:59;11.73;;;5.47;;
40907;SDS011;51055;59.436;24.778;2023-02-07T01:50:27;15.93;;;5.65;;
40907;SDS011;51055;59.436;24.778;2023-02-07T01:52:55;18.45;;;6.55;;
40907;SDS011;51055;59.436;24.778;2023-02-07T01:55:25;14.20;;;5.22;;
40907;SDS011;51055;59.436;24.778;2023-02-07T01:57:55;15.65;;;5.30;;
40907;SDS011;51055;59.436;24.778;2023-02-07T02:00:23;18.55;;;5.60;;
40907;SDS011;51055;59.436;24.778;2023-02-07T02:02:51;14.32;;;5.82;;
40907;SDS011;51055;59.436;24.778;2023-02-07T02:05:18;12.88;;;5.70;;
40907;SDS011;51055;59.436;24.778;2023-02-07T02:07:46;16.80;;;5.53;;
40907;SDS011;51055;59.436;24.778;2023-02-07T02:10:16;15.02;;;4.93;;
40907;SDS011;51055;59.436;24.778;2023-02-07T02:18:15;19.92;;;7.40;;
40907;SDS011;51055;59.436;24.778;2023-02-07T02:31:35;16.33;;;5.78;;
40907;SDS011;51055;59.436;24.778;2023-02-07T02:34:14;16.65;;;5.30;;
40907;SDS011;51055;59.436;24.778;2023-02-07T02:37:05;14.50;;;5.60;;
40907;SDS011;51055;59.436;24.778;2023-02-07T02:44:59;14.80;;;5.00;;
40907;SDS011;51055;59.436;24.778;2023-02-07T02:47:27;20.10;;;5.95;;
40907;SDS011;51055;59.436;24.778;2023-02-07T02:52:23;15.50;;;5.57;;
40907;SDS011;51055;59.436;24.778;2023-02-07T02:55:06;11.73;;;5.00;;
40907;SDS011;51055;59.436;24.778;2023-02-07T03:10:38;16.35;;;5.47;;
40907;SDS011;51055;59.436;24.778;2023-02-07T03:13:23;14.70;;;5.25;;
40907;SDS011;51055;59.436;24.778;2023-02-07T03:15:58;17.55;;;6.45;;
40907;SDS011;51055;59.436;24.778;2023-02-07T03:18:38;19.63;;;5.68;;
40907;SDS011;51055;59.436;24.778;2023-02-07T03:21:08;19.08;;;5.18;;
40907;SDS011;51055;59.436;24.778;2023-02-07T03:23:37;17.35;;;5.13;;
40907;SDS011;51055;59.436;24.778;2023-02-07T03:26:05;19.30;;;6.05;;
40907;SDS011;51055;59.436;24.778;2023-02-07T03:28:33;13.02;;;4.18;;
40907;SDS011;51055;59.436;24.778;2023-02-07T03:31:01;15.25;;;4.43;;
40907;SDS011;51055;59.436;24.778;2023-02-07T03:33:30;17.23;;;5.78;;
40907;SDS011;51055;59.436;24.778;2023-02-07T03:36:12;21.10;;;5.88;;
40907;SDS011;51055;59.436;24.778;2023-02-07T03:38:41;18.13;;;5.05;;
40907;SDS011;51055;59.436;24.778;2023-02-07T03:41:10;21.02;;;5.38;;
40907;SDS011;51055;59.436;24.778;2023-02-07T03:43:42;14.68;;;4.78;;
40907;SDS011;51055;59.436;24.778;2023-02-07T03:46:10;14.65;;;4.70;;
40907;SDS011;51055;59.436;24.778;2023-02-07T03:48:37;22.83;;;5.40;;
40907;SDS011;51055;59.436;24.778;2023-02-07T03:51:05;17.17;;;5.40;;
40907;SDS011;51055;59.436;24.778;2023-02-07T03:53:33;16.33;;;4.93;;
40907;SDS011;51055;59.436;24.778;2023-02-07T03:56:00;16.35;;;4.85;;
40907;SDS011;51055;59.436;24.778;2023-02-07T03:58:27;16.23;;;4.70;;
40907;SDS011;51055;59.436;24.778;2023-02-07T04:00:54;17.45;;;5.00;;
40907;SDS011;51055;59.436;24.778;2023-02-07T04:03:22;13.00;;;3.33;;
40907;SDS011;51055;59.436;24.778;2023-02-07T04:05:50;15.93;;;4.80;;
40907;SDS011;51055;59.436;24.778;2023-02-07T04:08:18;15.18;;;4.05;;
40907;SDS011;51055;59.436;24.778;2023-02-07T04:10:54;21.88;;;5.20;;
40907;SDS011;51055;59.436;24.778;2023-02-07T04:13:22;17.83;;;4.15;;
40907;SDS011;51055;59.436;24.778;2023-02-07T04:15:49;14.40;;;4.43;;
40907;SDS011;51055;59.436;24.778;2023-02-07T04:18:17;16.92;;;4.18;;
40907;SDS011;51055;59.436;24.778;2023-02-07T04:20:44;17.23;;;4.38;;
40907;SDS011;51055;59.436;24.778;2023-02-07T04:23:12;14.32;;;4.35;;
40907;SDS011;51055;59.436;24.778;2023-02-07T04:25:39;16.73;;;5.50;;
40907;SDS011;51055;59.436;24.778;2023-02-07T04:28:07;15.50;;;4.28;;
40907;SDS011;51055;59.436;24.778;2023-02-07T04:30:34;16.85;;;4.90;;
40907;SDS011;51055;59.436;24.778;2023-02-07T04:33:02;16.60;;;4.07;;
40907;SDS011;51055;59.436;24.778;2023-02-07T04:35:30;18.38;;;4.97;;
40907;SDS011;51055;59.436;24.778;2023-02-07T04:37:57;17.15;;;6.25;;
40907;SDS011;51055;59.436;24.778;2023-02-07T04:40:25;16.50;;;5.18;;
40907;SDS011;51055;59.436;24.778;2023-02-07T04:42:52;13.68;;;4.75;;
40907;SDS011;51055;59.436;24.778;2023-02-07T04:45:19;15.88;;;4.55;;
40907;SDS011;51055;59.436;24.778;2023-02-07T04:47:47;11.95;;;4.32;;
40907;SDS011;51055;59.436;24.778;2023-02-07T04:50:14;11.98;;;4.22;;
40907;SDS011;51055;59.436;24.778;2023-02-07T04:52:42;14.27;;;5.22;;
40907;SDS011;51055;59.436;24.778;2023-02-07T04:55:10;10.82;;;5.03;;
40907;SDS011;51055;59.436;24.778;2023-02-07T04:57:37;14.88;;;3.83;;
40907;SDS011;51055;59.436;24.778;2023-02-07T05:00:05;11.70;;;4.03;;
40907;SDS011;51055;59.436;24.778;2023-02-07T05:02:35;12.13;;;4.35;;
40907;SDS011;51055;59.436;24.778;2023-02-07T05:05:02;13.23;;;4.05;;
40907;SDS011;51055;59.436;24.778;2023-02-07T05:07:30;15.32;;;4.15;;
40907;SDS011;51055;59.436;24.778;2023-02-07T05:09:57;12.52;;;3.92;;
40907;SDS011;51055;59.436;24.778;2023-02-07T05:12:24;14.35;;;3.67;;
40907;SDS011;51055;59.436;24.778;2023-02-07T05:14:51;16.25;;;4.03;;
40907;SDS011;51055;59.436;24.778;2023-02-07T05:17:18;11.82;;;3.85;;
40907;SDS011;51055;59.436;24.778;2023-02-07T05:19:46;12.70;;;3.55;;
40907;SDS011;51055;59.436;24.778;2023-02-07T05:22:13;9.40;;;3.17;;
40907;SDS011;51055;59.436;24.778;2023-02-07T05:24:41;14.63;;;4.18;;
40907;SDS011;51055;59.436;24.778;2023-02-07T05:27:09;10.68;;;3.42;;
40907;SDS011;51055;59.436;24.778;2023-02-07T05:29:37;12.52;;;3.50;;
40907;SDS011;51055;59.436;24.778;2023-02-07T05:32:04;11.10;;;3.15;;
40907;SDS011;51055;59.436;24.778;2023-02-07T05:34:50;16.33;;;3.50;;
40907;SDS011;51055;59.436;24.778;2023-02-07T05:37:17;18.55;;;3.55;;
40907;SDS011;51055;59.436;24.778;2023-02-07T05:39:44;9.43;;;3.17;;
40907;SDS011;51055;59.436;24.778;2023-02-07T05:42:11;14.02;;;3.30;;
40907;SDS011;51055;59.436;24.778;2023-02-07T05:44:38;9.65;;;3.05;;
40907;SDS011;51055;59.436;24.778;2023-02-07T05:47:06;12.23;;;3.17;;
40907;SDS011;51055;59.436;24.778;2023-02-07T05:49:33;11.48;;;3.20;;
40907;SDS011;51055;59.436;24.778;2023-02-07T05:52:00;14.25;;;3.15;;
40907;SDS011;51055;59.436;24.778;2023-02-07T05:54:28;14.00;;;3.65;;
40907;SDS011;51055;59.436;24.778;2023-02-07T05:56:55;11.63;;;3.53;;
40907;SDS011;51055;59.436;24.778;2023-02-07T05:59:23;12.20;;;3.65;;
40907;SDS011;51055;59.436;24.778;2023-02-07T06:01:50;11.25;;;3.17;;
40907;SDS011;51055;59.436;24.778;2023-02-07T06:04:17;10.70;;;3.00;;
40907;SDS011;51055;59.436;24.778;2023-02-07T06:06:44;11.95;;;3.47;;
40907;SDS011;51055;59.436;24.778;2023-02-07T06:09:12;10.65;;;3.17;;
40907;SDS011;51055;59.436;24.778;2023-02-07T06:11:39;13.07;;;3.80;;
40907;SDS011;51055;59.436;24.778;2023-02-07T06:14:07;12.90;;;3.40;;
40907;SDS011;51055;59.436;24.778;2023-02-07T06:16:34;13.32;;;3.63;;
40907;SDS011;51055;59.436;24.778;2023-02-07T06:19:02;10.57;;;3.58;;
40907;SDS011;51055;59.436;24.778;2023-02-07T06:21:29;15.63;;;3.65;;
40907;SDS011;51055;59.436;24.778;2023-02-07T06:24:11;11.40;;;2.53;;
40907;SDS011;51055;59.436;24.778;2023-02-07T06:26:38;14.85;;;3.53;;
40907;SDS011;51055;59.436;24.778;2023-02-07T06:29:05;10.02;;;3.22;;
40907;SDS011;51055;59.436;24.778;2023-02-07T06:31:33;11.88;;;3.22;;
40907;SDS011;51055;59.436;24.778;2023-02-07T06:34:00;9.63;;;2.53;;
40907;SDS011;51055;59.436;24.778;2023-02-07T06:36:28;11.48;;;3.10;;
40907;SDS011;51055;59.436;24.778;2023-02-07T06:38:55;10.93;;;2.95;;
40907;SDS011;51055;59.436;24.778;2023-02-07T06:41:23;12.55;;;2.72;;
40907;SDS011;51055;59.436;24.778;2023-02-07T06:43:50;11.18;;;3.00;;
40907;SDS011;51055;59.436;24.778;2023-02-07T06:46:18;9.23;;;2.88;;
40907;SDS011;51055;59.436;24.778;2023-02-07T06:48:45;13.80;;;3.65;;
40907;SDS011;51055;59.436;24.778;2023-02-07T06:51:13;9.32;;;2.95;;
40907;SDS011;51055;59.436;24.778;2023-02-07T06:53:40;13.13;;;3.92;;
40907;SDS011;51055;59.436;24.778;2023-02-07T06:56:08;11.43;;;3.60;;
40907;SDS011;51055;59.436;24.778;2023-02-07T06:58:35;11.75;;;3.08;;
40907;SDS011;51055;59.436;24.778;2023-02-07T07:01:03;12.20;;;3.20;;
40907;SDS011;51055;59.436;24.778;2023-02-07T07:03:30;14.05;;;4.05;;
40907;SDS011;51055;59.436;24.778;2023-02-07T07:05:59;12.40;;;3.22;;
40907;SDS011;51055;59.436;24.778;2023-02-07T07:08:26;14.25;;;3.17;;
40907;SDS011;51055;59.436;24.778;2023-02-07T07:10:55;12.00;;;3.80;;
40907;SDS011;51055;59.436;24.778;2023-02-07T07:13:22;11.15;;;2.92;;
40907;SDS011;51055;59.436;24.778;2023-02-07T07:15:50;13.35;;;3.45;;
40907;SDS011;51055;59.436;24.778;2023-02-07T07:18:17;11.40;;;3.10;;
40907;SDS011;51055;59.436;24.778;2023-02-07T07:20:45;12.77;;;3.63;;
40907;SDS011;51055;59.436;24.778;2023-02-07T07:23:12;14.25;;;3.10;;
40907;SDS011;51055;59.436;24.778;2023-02-07T07:25:39;14.40;;;3.42;;
40907;SDS011;51055;59.436;24.778;2023-02-07T07:28:06;12.32;;;3.10;;
40907;SDS011;51055;59.436;24.778;2023-02-07T07:30:34;14.60;;;4.75;;
40907;SDS011;51055;59.436;24.778;2023-02-07T07:33:01;13.35;;;4.10;;
40907;SDS011;51055;59.436;24.778;2023-02-07T07:35:28;12.20;;;3.95;;
40907;SDS011;51055;59.436;24.778;2023-02-07T07:37:56;10.73;;;3.75;;
40907;SDS011;51055;59.436;24.778;2023-02-07T07:40:23;13.52;;;4.07;;
40907;SDS011;51055;59.436;24.778;2023-02-07T07:42:51;15.25;;;4.10;;
40907;SDS011;51055;59.436;24.778;2023-02-07T07:45:18;18.27;;;4.97;;
40907;SDS011;51055;59.436;24.778;2023-02-07T07:47:46;14.55;;;5.68;;
40907;SDS011;51055;59.436;24.778;2023-02-07T07:50:13;12.77;;;4.43;;
40907;SDS011;51055;59.436;24.778;2023-02-07T07:52:40;14.25;;;4.22;;
40907;SDS011;51055;59.436;24.778;2023-02-07T07:55:09;17.15;;;5.18;;
40907;SDS011;51055;59.436;24.778;2023-02-07T07:57:36;12.05;;;3.85;;
40907;SDS011;51055;59.436;24.778;2023-02-07T08:00:05;14.55;;;4.30;;
40907;SDS011;51055;59.436;24.778;2023-02-07T08:02:33;10.57;;;3.58;;
40907;SDS011;51055;59.436;24.778;2023-02-07T08:05:00;14.65;;;3.92;;
40907;SDS011;51055;59.436;24.778;2023-02-07T08:07:28;20.70;;;4.75;;
40907;SDS011;51055;59.436;24.778;2023-02-07T08:09:55;16.10;;;4.18;;
40907;SDS011;51055;59.436;24.778;2023-02-07T08:12:22;16.73;;;3.55;;
40907;SDS011;51055;59.436;24.778;2023-02-07T08:14:50;10.20;;;3.35;;
40907;SDS011;51055;59.436;24.778;2023-02-07T08:17:17;16.10;;;3.35;;
40907;SDS011;51055;59.436;24.778;2023-02-07T08:19:45;15.00;;;3.25;;
40907;SDS011;51055;59.436;24.778;2023-02-07T08:22:12;13.60;;;2.97;;
40907;SDS011;51055;59.436;24.778;2023-02-07T08:24:41;13.68;;;3.33;;
40907;SDS011;51055;59.436;24.778;2023-02-07T08:27:09;18.92;;;4.57;;
40907;SDS011;51055;59.436;24.778;2023-02-07T08:29:36;12.13;;;2.53;;
40907;SDS011;51055;59.436;24.778;2023-02-07T08:32:03;14.15;;;3.75;;
40907;SDS011;51055;59.436;24.778;2023-02-07T08:34:31;9.10;;;2.75;;
40907;SDS011;51055;59.436;24.778;2023-02-07T08:37:04;13.30;;;2.58;;
40907;SDS011;51055;59.436;24.778;2023-02-07T08:39:32;9.00;;;2.50;;
40907;SDS011;51055;59.436;24.778;2023-02-07T08:42:00;10.35;;;3.38;;
40907;SDS011;51055;59.436;24.778;2023-02-07T08:44:28;14.07;;;3.60;;
40907;SDS011;51055;59.436;24.778;2023-02-07T08:46:55;11.35;;;3.03;;
40907;SDS011;51055;59.436;24.778;2023-02-07T08:49:22;16.75;;;4.72;;
40907;SDS011;51055;59.436;24.778;2023-02-07T08:51:50;12.43;;;3.40;;
40907;SDS011;51055;59.436;24.778;2023-02-07T08:54:18;11.07;;;2.80;;
40907;SDS011;51055;59.436;24.778;2023-02-07T08:56:46;12.65;;;2.92;;
40907;SDS011;51055;59.436;24.778;2023-02-07T08:59:13;10.02;;;2.70;;
40907;SDS011;51055;59.436;24.778;2023-02-07T09:01:40;11.00;;;2.75;;
40907;SDS011;51055;59.436;24.778;2023-02-07T09:04:08;10.60;;;2.50;;
40907;SDS011;51055;59.436;24.778;2023-02-07T09:06:37;15.40;;;3.42;;
40907;SDS011;51055;59.436;24.778;2023-02-07T09:09:05;10.30;;;2.83;;
40907;SDS011;51055;59.436;24.778;2023-02-07T09:11:32;10.10;;;2.70;;
40907;SDS011;51055;59.436;24.778;2023-02-07T09:13:59;13.48;;;3.38;;
40907;SDS011;51055;59.436;24.778;2023-02-07T09:16:27;7.32;;;2.33;;
40907;SDS011;51055;59.436;24.778;2023-02-07T09:18:54;11.35;;;3.40;;
40907;SDS011;51055;59.436;24.778;2023-02-07T09:21:22;10.40;;;2.90;;
40907;SDS011;51055;59.436;24.778;2023-02-07T09:23:50;8.07;;;2.67;;
40907;SDS011;51055;59.436;24.778;2023-02-07T09:26:20;9.32;;;2.95;;
40907;SDS011;51055;59.436;24.778;2023-02-07T09:28:48;11.52;;;3.53;;
40907;SDS011;51055;59.436;24.778;2023-02-07T09:31:15;10.15;;;3.03;;
40907;SDS011;51055;59.436;24.778;2023-02-07T09:33:43;9.73;;;2.97;;
40907;SDS011;51055;59.436;24.778;2023-02-07T09:36:20;8.60;;;3.35;;
40907;SDS011;51055;59.436;24.778;2023-02-07T09:38:48;11.20;;;3.38;;
40907;SDS011;51055;59.436;24.778;2023-02-07T09:46:31;10.27;;;2.90;;
40907;SDS011;51055;59.436;24.778;2023-02-07T09:49:24;11.57;;;2.88;;
40907;SDS011;51055;59.436;24.778;2023-02-07T09:51:47;14.05;;;2.80;;
40907;SDS011;51055;59.436;24.778;2023-02-07T09:54:25;10.55;;;2.80;;
40907;SDS011;51055;59.436;24.778;2023-02-07T09:56:54;8.85;;;3.22;;
40907;SDS011;51055;59.436;24.778;2023-02-07T09:59:41;8.45;;;2.88;;
40907;SDS011;51055;59.436;24.778;2023-02-07T10:02:15;9.43;;;3.20;;
40907;SDS011;51055;59.436;24.778;2023-02-07T10:04:44;11.30;;;3.30;;
40907;SDS011;51055;59.436;24.778;2023-02-07T10:07:13;9.82;;;2.92;;
40907;SDS011;51055;59.436;24.778;2023-02-07T10:09:42;8.55;;;3.08;;
40907;SDS011;51055;59.436;24.778;2023-02-07T10:15:33;10.73;;;2.95;;
40907;SDS011;51055;59.436;24.778;2023-02-07T10:31:02;7.88;;;2.95;;
40907;SDS011;51055;59.436;24.778;2023-02-07T10:33:32;8.63;;;3.00;;
40907;SDS011;51055;59.436;24.778;2023-02-07T10:36:01;9.43;;;3.42;;
40907;SDS011;51055;59.436;24.778;2023-02-07T10:41:09;8.93;;;3.25;;
40907;SDS011;51055;59.436;24.778;2023-02-07T10:43:38;7.40;;;3.08;;
40907;SDS011;51055;59.436;24.778;2023-02-07T10:46:10;7.50;;;3.05;;
40907;SDS011;51055;59.436;24.778;2023-02-07T10:48:38;10.90;;;2.85;;
40907;SDS011;51055;59.436;24.778;2023-02-07T10:51:12;6.32;;;2.33;;
40907;SDS011;51055;59.436;24.778;2023-02-07T10:53:47;9.70;;;3.20;;
40907;SDS011;51055;59.436;24.778;2023-02-07T10:56:22;7.28;;;2.90;;
40907;SDS011;51055;59.436;24.778;2023-02-07T10:58:50;6.35;;;2.55;;
40907;SDS011;51055;59.436;24.778;2023-02-07T11:01:18;6.68;;;2.30;;
40907;SDS011;51055;59.436;24.778;2023-02-07T11:03:46;9.48;;;2.80;;
40907;SDS011;51055;59.436;24.778;2023-02-07T11:06:15;6.55;;;2.65;;
40907;SDS011;51055;59.436;24.778;2023-02-07T11:08:42;6.28;;;2.60;;
40907;SDS011;51055;59.436;24.778;2023-02-07T11:11:43;9.82;;;2.50;;
40907;SDS011;51055;59.436;24.778;2023-02-07T11:14:06;8.65;;;2.63;;
40907;SDS011;51055;59.436;24.778;2023-02-07T11:16:34;8.25;;;2.92;;
40907;SDS011;51055;59.436;24.778;2023-02-07T11:19:02;7.15;;;2.70;;
40907;SDS011;51055;59.436;24.778;2023-02-07T11:24:04;8.52;;;2.92;;
40907;SDS011;51055;59.436;24.778;2023-02-07T11:26:33;7.20;;;2.30;;
40907;SDS011;51055;59.436;24.778;2023-02-07T11:29:03;6.47;;;1.85;;
40907;SDS011;51055;59.436;24.778;2023-02-07T11:31:34;7.20;;;2.42;;
40907;SDS011;51055;59.436;24.778;2023-02-07T11:36:45;7.10;;;2.35;;
40907;SDS011;51055;59.436;24.778;2023-02-07T11:39:17;6.88;;;2.30;;
40907;SDS011;51055;59.436;24.778;2023-02-07T11:41:52;7.55;;;2.50;;
40907;SDS011;51055;59.436;24.778;2023-02-07T11:44:22;8.30;;;2.53;;
40907;SDS011;51055;59.436;24.778;2023-02-07T11:46:49;6.32;;;2.30;;
40907;SDS011;51055;59.436;24.778;2023-02-07T11:51:50;7.72;;;2.50;;
40907;SDS011;51055;59.436;24.778;2023-02-07T11:54:19;7.53;;;2.55;;
40907;SDS011;51055;59.436;24.778;2023-02-07T11:56:50;5.93;;;2.60;;
40907;SDS011;51055;59.436;24.778;2023-02-07T11:59:23;6.90;;;2.60;;
40907;SDS011;51055;59.436;24.778;2023-02-07T12:01:51;8.48;;;3.00;;
40907;SDS011;51055;59.436;24.778;2023-02-07T12:04:20;8.35;;;2.78;;
40907;SDS011;51055;59.436;24.778;2023-02-07T12:06:55;7.38;;;2.97;;
40907;SDS011;51055;59.436;24.778;2023-02-07T12:09:29;6.40;;;2.90;;
40907;SDS011;51055;59.436;24.778;2023-02-07T12:11:57;8.88;;;2.83;;
40907;SDS011;51055;59.436;24.778;2023-02-07T12:14:29;8.10;;;3.17;;
40907;SDS011;51055;59.436;24.778;2023-02-07T12:16:58;8.57;;;3.10;;
40907;SDS011;51055;59.436;24.778;2023-02-07T12:19:28;9.80;;;3.63;;
40907;SDS011;51055;59.436;24.778;2023-02-07T12:22:04;11.50;;;3.70;;
40907;SDS011;51055;59.436;24.778;2023-02-07T12:24:35;9.93;;;3.78;;
40907;SDS011;51055;59.436;24.778;2023-02-07T12:32:22;10.13;;;3.40;;
40907;SDS011;51055;59.436;24.778;2023-02-07T12:34:58;7.80;;;3.28;;
40907;SDS011;51055;59.436;24.778;2023-02-07T12:37:30;10.48;;;3.83;;
40907;SDS011;51055;59.436;24.778;2023-02-07T12:42:38;8.05;;;3.60;;
40907;SDS011;51055;59.436;24.778;2023-02-07T12:45:06;10.85;;;3.60;;
40907;SDS011;51055;59.436;24.778;2023-02-07T13:03:25;8.35;;;3.00;;
40907;SDS011;51055;59.436;24.778;2023-02-07T13:19:34;9.65;;;3.10;;
40907;SDS011;51055;59.436;24.778;2023-02-07T13:21:55;7.40;;;2.85;;
40907;SDS011;51055;59.436;24.778;2023-02-07T13:24:23;9.52;;;2.65;;
40907;SDS011;51055;59.436;24.778;2023-02-07T13:29:19;7.03;;;3.05;;
40907;SDS011;51055;59.436;24.778;2023-02-07T13:34:26;9.45;;;2.90;;
40907;SDS011;51055;59.436;24.778;2023-02-07T13:36:55;7.38;;;2.53;;
40907;SDS011;51055;59.436;24.778;2023-02-07T13:44:30;7.47;;;2.60;;
40907;SDS011;51055;59.436;24.778;2023-02-07T13:52:22;7.22;;;2.53;;
40907;SDS011;51055;59.436;24.778;2023-02-07T13:54:57;11.15;;;2.53;;
40907;SDS011;51055;59.436;24.778;2023-02-07T14:00:19;8.13;;;2.38;;
40907;SDS011;51055;59.436;24.778;2023-02-07T14:02:48;9.93;;;2.80;;
40907;SDS011;51055;59.436;24.778;2023-02-07T14:05:27;5.78;;;2.05;;
40907;SDS011;51055;59.436;24.778;2023-02-07T14:10:42;8.82;;;2.65;;
40907;SDS011;51055;59.436;24.778;2023-02-07T14:13:45;8.65;;;2.65;;
40907;SDS011;51055;59.436;24.778;2023-02-07T14:21:24;5.13;;;2.13;;
40907;SDS011;51055;59.436;24.778;2023-02-07T14:27:02;6.72;;;2.55;;
40907;SDS011;51055;59.436;24.778;2023-02-07T14:31:49;10.27;;;2.75;;
40907;SDS011;51055;59.436;24.778;2023-02-07T14:34:18;6.43;;;2.40;;
40907;SDS011;51055;59.436;24.778;2023-02-07T14:36:48;9.13;;;2.45;;
40907;SDS011;51055;59.436;24.778;2023-02-07T14:41:47;6.72;;;3.08;;
40907;SDS011;51055;59.436;24.778;2023-02-07T14:46:48;5.45;;;2.53;;
40907;SDS011;51055;59.436;24.778;2023-02-07T14:49:18;11.68;;;3.53;;
40907;SDS011;51055;59.436;24.778;2023-02-07T14:51:48;9.35;;;2.78;;
40907;SDS011;51055;59.436;24.778;2023-02-07T14:59:25;8.27;;;2.90;;
40907;SDS011;51055;59.436;24.778;2023-02-07T15:01:54;7.35;;;3.20;;
40907;SDS011;51055;59.436;24.778;2023-02-07T15:04:21;8.25;;;2.70;;
40907;SDS011;51055;59.436;24.778;2023-02-07T15:06:48;9.20;;;3.22;;
40907;SDS011;51055;59.436;24.778;2023-02-07T15:09:20;8.65;;;3.13;;
40907;SDS011;51055;59.436;24.778;2023-02-07T15:11:48;7.25;;;2.95;;
40907;SDS011;51055;59.436;24.778;2023-02-07T15:14:30;10.10;;;3.45;;
40907;SDS011;51055;59.436;24.778;2023-02-07T15:16:58;10.15;;;3.95;;
40907;SDS011;51055;59.436;24.778;2023-02-07T15:19:36;10.13;;;3.80;;
40907;SDS011;51055;59.436;24.778;2023-02-07T15:22:04;11.40;;;4.22;;
40907;SDS011;51055;59.436;24.778;2023-02-07T15:24:49;12.68;;;4.88;;
40907;SDS011;51055;59.436;24.778;2023-02-07T15:27:20;9.70;;;3.90;;
40907;SDS011;51055;59.436;24.778;2023-02-07T15:32:25;13.77;;;4.93;;
40907;SDS011;51055;59.436;24.778;2023-02-07T15:35:22;12.80;;;4.53;;
40907;SDS011;51055;59.436;24.778;2023-02-07T15:37:50;11.15;;;4.55;;
40907;SDS011;51055;59.436;24.778;2023-02-07T15:40:21;10.75;;;4.68;;
40907;SDS011;51055;59.436;24.778;2023-02-07T15:42:52;7.45;;;4.28;;
40907;SDS011;51055;59.436;24.778;2023-02-07T15:45:27;10.60;;;3.30;;
40907;SDS011;51055;59.436;24.778;2023-02-07T15:48:14;11.80;;;4.53;;
40907;SDS011;51055;59.436;24.778;2023-02-07T15:50:42;11.10;;;4.93;;
40907;SDS011;51055;59.436;24.778;2023-02-07T15:53:14;11.85;;;4.88;;
40907;SDS011;51055;59.436;24.778;2023-02-07T15:55:45;13.45;;;4.82;;
40907;SDS011;51055;59.436;24.778;2023-02-07T15:58:23;14.57;;;5.07;;
40907;SDS011;51055;59.436;24.778;2023-02-07T16:00:51;10.95;;;5.05;;
40907;SDS011;51055;59.436;24.778;2023-02-07T16:03:20;8.85;;;4.25;;
40907;SDS011;51055;59.436;24.778;2023-02-07T16:05:47;8.60;;;3.42;;
40907;SDS011;51055;59.436;24.778;2023-02-07T16:08:28;14.80;;;4.30;;
40907;SDS011;51055;59.436;24.778;2023-02-07T16:11:12;12.15;;;4.90;;
40907;SDS011;51055;59.436;24.778;2023-02-07T16:13:44;14.77;;;4.72;;
40907;SDS011;51055;59.436;24.778;2023-02-07T16:16:19;11.38;;;4.63;;
40907;SDS011;51055;59.436;24.778;2023-02-07T16:18:46;13.52;;;5.25;;
40907;SDS011;51055;59.436;24.778;2023-02-07T16:23:45;11.50;;;4.03;;
40907;SDS011;51055;59.436;24.778;2023-02-07T16:26:13;11.27;;;3.58;;
40907;SDS011;51055;59.436;24.778;2023-02-07T16:28:43;12.68;;;4.70;;
40907;SDS011;51055;59.436;24.778;2023-02-07T16:31:10;9.90;;;4.10;;
40907;SDS011;51055;59.436;24.778;2023-02-07T16:33:39;6.20;;;3.45;;
40907;SDS011;51055;59.436;24.778;2023-02-07T16:36:10;11.55;;;4.07;;
40907;SDS011;51055;59.436;24.778;2023-02-07T16:38:39;8.95;;;3.40;;
40907;SDS011;51055;59.436;24.778;2023-02-07T16:41:09;9.40;;;3.80;;
40907;SDS011;51055;59.436;24.778;2023-02-07T16:43:38;13.20;;;4.15;;
40907;SDS011;51055;59.436;24.778;2023-02-07T16:46:06;15.63;;;4.10;;
40907;SDS011;51055;59.436;24.778;2023-02-07T16:48:33;12.65;;;4.38;;
40907;SDS011;51055;59.436;24.778;2023-02-07T16:51:00;13.90;;;4.60;;
40907;SDS011;51055;59.436;24.778;2023-02-07T16:53:28;10.82;;;4.07;;
40907;SDS011;51055;59.436;24.778;2023-02-07T16:55:55;11.73;;;3.75;;
40907;SDS011;51055;59.436;24.778;2023-02-07T16:58:25;9.18;;;3.05;;
40907;SDS011;51055;59.436;24.778;2023-02-07T17:00:53;17.67;;;3.72;;
40907;SDS011;51055;59.436;24.778;2023-02-07T17:03:21;10.30;;;4.10;;
40907;SDS011;51055;59.436;24.778;2023-02-07T17:05:49;10.18;;;3.40;;
40907;SDS011;51055;59.436;24.778;2023-02-07T17:08:18;11.00;;;3.45;;
40907;SDS011;51055;59.436;24.778;2023-02-07T17:10:50;15.45;;;3.90;;
40907;SDS011;51055;59.436;24.778;2023-02-07T17:13:18;11.27;;;3.95;;
40907;SDS011;51055;59.436;24.778;2023-02-07T17:15:46;11.25;;;3.65;;